sensor_id;sensor_type;location;lat;lon;timestamp;pressure;altitude;pressure_sealevel;temperature;humidity
62164;BME280;48149;51.132;7.178;2023-01-19T00:01:31;97259.81;;;14.73;nan
62164;BME280;48149;51.132;7.178;2023-01-19T00:03:56;97259.59;;;16.24;nan
62164;BME280;48149;51.132;7.178;2023-01-19T00:06:22;97256.53;;;14.97;nan
62164;BME280;48149;51.132;7.178;2023-01-19T00:08:47;97255.88;;;15.10;nan
62164;BME280;48149;51.132;7.178;2023-01-19T00:11:14;97260.13;;;15.73;nan
62164;BME280;48149;51.132;7.178;2023-01-19T00:13:41;97269.91;;;14.61;nan
62164;BME280;48149;51.132;7.178;2023-01-19T00:16:13;97261.59;;;14.34;nan
62164;BME280;48149;51.132;7.178;2023-01-19T00:18:41;97261.56;;;15.27;nan
62164;BME280;48149;51.132;7.178;2023-01-19T00:21:06;97264.19;;;15.66;nan
62164;BME280;48149;51.132;7.178;2023-01-19T00:23:31;97260.28;;;15.24;nan
62164;BME280;48149;51.132;7.178;2023-01-19T00:25:57;97275.97;;;13.67;nan
62164;BME280;48149;51.132;7.178;2023-01-19T00:28:22;97268.53;;;14.74;nan
62164;BME280;48149;51.132;7.178;2023-01-19T00:30:48;97262.25;;;14.60;nan
62164;BME280;48149;51.132;7.178;2023-01-19T00:33:14;97265.91;;;12.99;nan
62164;BME280;48149;51.132;7.178;2023-01-19T00:35:39;97265.97;;;13.59;nan
62164;BME280;48149;51.132;7.178;2023-01-19T00:38:06;97275.78;;;14.38;nan
62164;BME280;48149;51.132;7.178;2023-01-19T00:40:32;97258.16;;;14.38;nan
62164;BME280;48149;51.132;7.178;2023-01-19T00:42:57;97267.59;;;15.32;nan
62164;BME280;48149;51.132;7.178;2023-01-19T00:45:22;97265.31;;;14.18;nan
62164;BME280;48149;51.132;7.178;2023-01-19T00:47:48;97256.22;;;13.80;nan
62164;BME280;48149;51.132;7.178;2023-01-19T00:50:18;97260.06;;;14.18;nan
62164;BME280;48149;51.132;7.178;2023-01-19T00:52:44;97259.03;;;12.67;nan
62164;BME280;48149;51.132;7.178;2023-01-19T00:55:10;97254.00;;;14.76;nan
62164;BME280;48149;51.132;7.178;2023-01-19T00:57:36;97251.53;;;15.91;nan
62164;BME280;48149;51.132;7.178;2023-01-19T01:00:03;97263.47;;;15.21;nan
62164;BME280;48149;51.132;7.178;2023-01-19T01:02:30;97251.22;;;14.58;nan
62164;BME280;48149;51.132;7.178;2023-01-19T01:04:55;97251.75;;;14.99;nan
62164;BME280;48149;51.132;7.178;2023-01-19T01:07:21;97250.00;;;14.40;nan
62164;BME280;48149;51.132;7.178;2023-01-19T01:09:46;97254.44;;;14.50;nan
62164;BME280;48149;51.132;7.178;2023-01-19T01:12:11;97255.78;;;15.25;nan
62164;BME280;48149;51.132;7.178;2023-01-19T01:14:36;97254.53;;;15.51;nan
62164;BME280;48149;51.132;7.178;2023-01-19T01:17:02;97254.91;;;13.62;nan
62164;BME280;48149;51.132;7.178;2023-01-19T01:19:27;97255.56;;;14.23;nan
62164;BME280;48149;51.132;7.178;2023-01-19T01:21:52;97252.91;;;15.84;nan
62164;BME280;48149;51.132;7.178;2023-01-19T01:24:18;97260.22;;;14.52;nan
62164;BME280;48149;51.132;7.178;2023-01-19T01:26:43;97262.34;;;14.45;nan
62164;BME280;48149;51.132;7.178;2023-01-19T01:29:08;97268.34;;;14.55;nan
62164;BME280;48149;51.132;7.178;2023-01-19T01:31:33;97283.84;;;13.47;nan
62164;BME280;48149;51.132;7.178;2023-01-19T01:33:59;97274.19;;;14.96;nan
62164;BME280;48149;51.132;7.178;2023-01-19T01:36:24;97286.72;;;13.56;nan
62164;BME280;48149;51.132;7.178;2023-01-19T01:38:53;97286.03;;;15.37;nan
62164;BME280;48149;51.132;7.178;2023-01-19T01:41:18;97283.09;;;15.73;nan
62164;BME280;48149;51.132;7.178;2023-01-19T01:43:47;97287.41;;;15.64;nan
62164;BME280;48149;51.132;7.178;2023-01-19T01:46:13;97279.22;;;15.65;nan
62164;BME280;48149;51.132;7.178;2023-01-19T01:48:39;97278.34;;;15.02;nan
62164;BME280;48149;51.132;7.178;2023-01-19T01:51:07;97294.53;;;14.16;nan
62164;BME280;48149;51.132;7.178;2023-01-19T01:53:50;97285.91;;;15.19;nan
62164;BME280;48149;51.132;7.178;2023-01-19T01:56:17;97281.09;;;14.13;nan
62164;BME280;48149;51.132;7.178;2023-01-19T01:58:45;97281.53;;;15.72;nan
62164;BME280;48149;51.132;7.178;2023-01-19T02:01:10;97283.75;;;14.18;nan
62164;BME280;48149;51.132;7.178;2023-01-19T02:03:54;97283.75;;;14.18;nan
62164;BME280;48149;51.132;7.178;2023-01-19T02:06:20;97284.03;;;14.06;nan
62164;BME280;48149;51.132;7.178;2023-01-19T02:09:01;97287.47;;;14.02;nan
62164;BME280;48149;51.132;7.178;2023-01-19T02:11:46;97284.66;;;13.58;nan
62164;BME280;48149;51.132;7.178;2023-01-19T02:14:30;97281.69;;;14.05;nan
62164;BME280;48149;51.132;7.178;2023-01-19T02:16:56;97272.75;;;13.80;nan
62164;BME280;48149;51.132;7.178;2023-01-19T02:19:23;97277.81;;;13.31;nan
62164;BME280;48149;51.132;7.178;2023-01-19T02:21:52;97282.53;;;15.08;nan
62164;BME280;48149;51.132;7.178;2023-01-19T02:24:18;97275.84;;;14.13;nan
62164;BME280;48149;51.132;7.178;2023-01-19T02:26:44;97270.34;;;14.14;nan
62164;BME280;48149;51.132;7.178;2023-01-19T02:29:12;97278.59;;;13.22;nan
62164;BME280;48149;51.132;7.178;2023-01-19T02:31:38;97275.19;;;14.56;nan
62164;BME280;48149;51.132;7.178;2023-01-19T02:34:04;97276.84;;;12.55;nan
62164;BME280;48149;51.132;7.178;2023-01-19T02:36:31;97268.91;;;14.52;nan
62164;BME280;48149;51.132;7.178;2023-01-19T02:38:58;97269.53;;;14.14;nan
62164;BME280;48149;51.132;7.178;2023-01-19T02:41:27;97273.66;;;14.45;nan
62164;BME280;48149;51.132;7.178;2023-01-19T02:43:54;97264.75;;;14.26;nan
62164;BME280;48149;51.132;7.178;2023-01-19T02:46:21;97265.09;;;14.04;nan
62164;BME280;48149;51.132;7.178;2023-01-19T02:48:46;97267.50;;;13.96;nan
62164;BME280;48149;51.132;7.178;2023-01-19T02:51:14;97270.94;;;13.76;nan
62164;BME280;48149;51.132;7.178;2023-01-19T02:53:46;97272.81;;;13.30;nan
62164;BME280;48149;51.132;7.178;2023-01-19T02:58:48;97265.78;;;14.40;nan
62164;BME280;48149;51.132;7.178;2023-01-19T03:03:54;97270.28;;;15.22;nan
62164;BME280;48149;51.132;7.178;2023-01-19T03:08:52;97267.94;;;15.21;nan
62164;BME280;48149;51.132;7.178;2023-01-19T03:11:19;97277.09;;;14.46;nan
62164;BME280;48149;51.132;7.178;2023-01-19T03:13:46;97271.56;;;15.30;nan
62164;BME280;48149;51.132;7.178;2023-01-19T03:16:16;97270.38;;;13.94;nan
62164;BME280;48149;51.132;7.178;2023-01-19T03:18:42;97270.09;;;14.01;nan
62164;BME280;48149;51.132;7.178;2023-01-19T03:21:10;97275.84;;;15.21;nan
62164;BME280;48149;51.132;7.178;2023-01-19T03:23:37;97264.53;;;14.76;nan
62164;BME280;48149;51.132;7.178;2023-01-19T03:26:04;97265.31;;;14.18;nan
62164;BME280;48149;51.132;7.178;2023-01-19T03:28:32;97267.00;;;13.78;nan
62164;BME280;48149;51.132;7.178;2023-01-19T03:31:00;97268.28;;;13.05;nan
62164;BME280;48149;51.132;7.178;2023-01-19T03:33:29;97268.38;;;13.46;nan
62164;BME280;48149;51.132;7.178;2023-01-19T03:35:57;97263.97;;;14.35;nan
62164;BME280;48149;51.132;7.178;2023-01-19T03:38:27;97263.28;;;12.83;nan
62164;BME280;48149;51.132;7.178;2023-01-19T03:40:57;97258.63;;;13.41;nan
62164;BME280;48149;51.132;7.178;2023-01-19T03:43:24;97258.56;;;15.05;nan
62164;BME280;48149;51.132;7.178;2023-01-19T03:45:50;97263.88;;;15.00;nan
62164;BME280;48149;51.132;7.178;2023-01-19T03:48:16;97266.41;;;15.15;nan
62164;BME280;48149;51.132;7.178;2023-01-19T03:50:42;97259.13;;;14.58;nan
62164;BME280;48149;51.132;7.178;2023-01-19T03:53:08;97275.66;;;14.68;nan
62164;BME280;48149;51.132;7.178;2023-01-19T03:55:34;97270.81;;;14.85;nan
62164;BME280;48149;51.132;7.178;2023-01-19T03:58:00;97270.50;;;14.92;nan
62164;BME280;48149;51.132;7.178;2023-01-19T04:00:25;97265.25;;;14.43;nan
62164;BME280;48149;51.132;7.178;2023-01-19T04:02:50;97273.69;;;14.25;nan
62164;BME280;48149;51.132;7.178;2023-01-19T04:05:15;97278.09;;;14.55;nan
62164;BME280;48149;51.132;7.178;2023-01-19T04:07:41;97261.94;;;14.02;nan
62164;BME280;48149;51.132;7.178;2023-01-19T04:10:06;97264.34;;;13.78;nan
62164;BME280;48149;51.132;7.178;2023-01-19T04:12:36;97280.78;;;12.48;nan
62164;BME280;48149;51.132;7.178;2023-01-19T04:15:01;97273.59;;;13.61;nan
62164;BME280;48149;51.132;7.178;2023-01-19T04:17:27;97261.22;;;13.71;nan
62164;BME280;48149;51.132;7.178;2023-01-19T04:19:52;97269.38;;;14.59;nan
62164;BME280;48149;51.132;7.178;2023-01-19T04:22:17;97279.53;;;15.25;nan
62164;BME280;48149;51.132;7.178;2023-01-19T04:24:42;97271.56;;;14.42;nan
62164;BME280;48149;51.132;7.178;2023-01-19T04:27:07;97267.75;;;13.94;nan
62164;BME280;48149;51.132;7.178;2023-01-19T04:29:33;97277.03;;;13.26;nan
62164;BME280;48149;51.132;7.178;2023-01-19T04:31:58;97263.25;;;14.05;nan
62164;BME280;48149;51.132;7.178;2023-01-19T04:34:23;97272.56;;;14.51;nan
62164;BME280;48149;51.132;7.178;2023-01-19T04:36:48;97270.16;;;13.55;nan
62164;BME280;48149;51.132;7.178;2023-01-19T04:39:15;97273.75;;;14.10;nan
62164;BME280;48149;51.132;7.178;2023-01-19T04:41:40;97272.75;;;12.90;nan
62164;BME280;48149;51.132;7.178;2023-01-19T04:44:05;97271.75;;;13.76;nan
62164;BME280;48149;51.132;7.178;2023-01-19T04:46:31;97288.19;;;22.24;nan
62164;BME280;48149;51.132;7.178;2023-01-19T04:48:56;97277.38;;;20.97;nan
62164;BME280;48149;51.132;7.178;2023-01-19T04:51:21;97267.34;;;20.68;nan
62164;BME280;48149;51.132;7.178;2023-01-19T04:53:46;97269.44;;;18.27;nan
62164;BME280;48149;51.132;7.178;2023-01-19T04:56:12;97253.66;;;18.08;nan
62164;BME280;48149;51.132;7.178;2023-01-19T04:58:37;97277.47;;;17.30;nan
62164;BME280;48149;51.132;7.178;2023-01-19T05:01:06;97279.09;;;15.46;nan
62164;BME280;48149;51.132;7.178;2023-01-19T05:03:31;97274.44;;;18.15;nan
62164;BME280;48149;51.132;7.178;2023-01-19T05:05:56;97275.56;;;17.17;nan
62164;BME280;48149;51.132;7.178;2023-01-19T05:08:21;97272.94;;;19.35;nan
62164;BME280;48149;51.132;7.178;2023-01-19T05:10:47;97264.94;;;19.49;nan
62164;BME280;48149;51.132;7.178;2023-01-19T05:13:12;97285.06;;;17.18;nan
62164;BME280;48149;51.132;7.178;2023-01-19T05:15:38;97270.22;;;19.04;nan
62164;BME280;48149;51.132;7.178;2023-01-19T05:18:03;97277.13;;;19.72;nan
62164;BME280;48149;51.132;7.178;2023-01-19T05:20:28;97274.56;;;19.00;nan
62164;BME280;48149;51.132;7.178;2023-01-19T05:22:53;97271.66;;;19.77;nan
62164;BME280;48149;51.132;7.178;2023-01-19T05:25:18;97271.09;;;20.19;nan
62164;BME280;48149;51.132;7.178;2023-01-19T05:27:44;97272.31;;;21.90;nan
62164;BME280;48149;51.132;7.178;2023-01-19T05:30:09;97262.63;;;22.53;nan
62164;BME280;48149;51.132;7.178;2023-01-19T05:32:35;97271.59;;;19.02;nan
62164;BME280;48149;51.132;7.178;2023-01-19T05:35:00;97260.91;;;31.44;nan
62164;BME280;48149;51.132;7.178;2023-01-19T05:37:25;97251.75;;;28.32;nan
62164;BME280;48149;51.132;7.178;2023-01-19T05:39:51;97255.75;;;29.24;nan
62164;BME280;48149;51.132;7.178;2023-01-19T05:42:16;97266.00;;;24.47;nan
62164;BME280;48149;51.132;7.178;2023-01-19T05:44:42;97269.66;;;24.78;nan
62164;BME280;48149;51.132;7.178;2023-01-19T05:47:07;97254.72;;;25.57;nan
62164;BME280;48149;51.132;7.178;2023-01-19T05:49:32;97271.34;;;25.94;nan
62164;BME280;48149;51.132;7.178;2023-01-19T05:51:57;97261.09;;;24.36;nan
62164;BME280;48149;51.132;7.178;2023-01-19T05:54:22;97256.53;;;23.56;nan
62164;BME280;48149;51.132;7.178;2023-01-19T05:56:48;97265.34;;;25.14;nan
62164;BME280;48149;51.132;7.178;2023-01-19T05:59:13;97260.31;;;24.24;nan
62164;BME280;48149;51.132;7.178;2023-01-19T06:01:39;97260.41;;;24.03;nan
62164;BME280;48149;51.132;7.178;2023-01-19T06:04:05;97278.88;;;32.61;nan
62164;BME280;48149;51.132;7.178;2023-01-19T06:06:31;97268.22;;;24.69;nan
62164;BME280;48149;51.132;7.178;2023-01-19T06:08:56;97276.97;;;27.02;nan
62164;BME280;48149;51.132;7.178;2023-01-19T06:11:21;97271.16;;;22.08;nan
62164;BME280;48149;51.132;7.178;2023-01-19T06:13:46;97274.16;;;15.97;nan
62164;BME280;48149;51.132;7.178;2023-01-19T06:16:12;97275.94;;;16.73;nan
62164;BME280;48149;51.132;7.178;2023-01-19T06:18:38;97281.03;;;17.58;nan
62164;BME280;48149;51.132;7.178;2023-01-19T06:21:04;97282.66;;;19.17;nan
62164;BME280;48149;51.132;7.178;2023-01-19T06:23:30;97292.03;;;18.25;nan
62164;BME280;48149;51.132;7.178;2023-01-19T06:25:55;97295.53;;;17.61;nan
62164;BME280;48149;51.132;7.178;2023-01-19T06:28:21;97306.78;;;17.34;nan
62164;BME280;48149;51.132;7.178;2023-01-19T06:30:48;97309.59;;;19.11;nan
62164;BME280;48149;51.132;7.178;2023-01-19T06:33:16;97310.34;;;18.89;nan
62164;BME280;48149;51.132;7.178;2023-01-19T06:35:42;97323.97;;;15.75;nan
62164;BME280;48149;51.132;7.178;2023-01-19T06:38:07;97327.28;;;16.15;nan
62164;BME280;48149;51.132;7.178;2023-01-19T06:40:33;97319.66;;;16.13;nan
62164;BME280;48149;51.132;7.178;2023-01-19T06:42:58;97325.56;;;18.84;nan
62164;BME280;48149;51.132;7.178;2023-01-19T06:45:23;97323.91;;;18.60;nan
62164;BME280;48149;51.132;7.178;2023-01-19T06:47:48;97320.88;;;19.16;nan
62164;BME280;48149;51.132;7.178;2023-01-19T06:50:14;97331.09;;;17.36;nan
62164;BME280;48149;51.132;7.178;2023-01-19T06:52:39;97322.44;;;17.81;nan
62164;BME280;48149;51.132;7.178;2023-01-19T06:55:08;97325.25;;;17.20;nan
62164;BME280;48149;51.132;7.178;2023-01-19T06:57:34;97337.09;;;18.06;nan
62164;BME280;48149;51.132;7.178;2023-01-19T07:00:00;97328.00;;;18.12;nan
62164;BME280;48149;51.132;7.178;2023-01-19T07:02:26;97336.69;;;15.68;nan
62164;BME280;48149;51.132;7.178;2023-01-19T07:04:51;97326.72;;;17.45;nan
62164;BME280;48149;51.132;7.178;2023-01-19T07:07:16;97331.25;;;18.09;nan
62164;BME280;48149;51.132;7.178;2023-01-19T07:09:41;97353.81;;;17.18;nan
62164;BME280;48149;51.132;7.178;2023-01-19T07:12:07;97337.84;;;17.79;nan
62164;BME280;48149;51.132;7.178;2023-01-19T07:14:33;97343.25;;;16.57;nan
62164;BME280;48149;51.132;7.178;2023-01-19T07:16:58;97343.97;;;17.24;nan
62164;BME280;48149;51.132;7.178;2023-01-19T07:19:24;97347.38;;;17.43;nan
62164;BME280;48149;51.132;7.178;2023-01-19T07:21:49;97353.66;;;18.57;nan
62164;BME280;48149;51.132;7.178;2023-01-19T07:24:14;97351.50;;;17.86;nan
62164;BME280;48149;51.132;7.178;2023-01-19T07:26:39;97362.84;;;16.75;nan
62164;BME280;48149;51.132;7.178;2023-01-19T07:29:05;97362.13;;;17.49;nan
62164;BME280;48149;51.132;7.178;2023-01-19T07:31:30;97351.06;;;17.79;nan
62164;BME280;48149;51.132;7.178;2023-01-19T07:33:55;97352.38;;;16.65;nan
62164;BME280;48149;51.132;7.178;2023-01-19T07:36:20;97359.38;;;17.54;nan
62164;BME280;48149;51.132;7.178;2023-01-19T07:38:45;97347.38;;;16.11;nan
62164;BME280;48149;51.132;7.178;2023-01-19T07:41:11;97359.34;;;18.37;nan
62164;BME280;48149;51.132;7.178;2023-01-19T07:43:36;97359.31;;;16.61;nan
62164;BME280;48149;51.132;7.178;2023-01-19T07:46:02;97387.75;;;16.16;nan
62164;BME280;48149;51.132;7.178;2023-01-19T07:48:28;97374.94;;;17.61;nan
62164;BME280;48149;51.132;7.178;2023-01-19T07:50:58;97386.81;;;18.28;nan
62164;BME280;48149;51.132;7.178;2023-01-19T07:53:23;97388.81;;;17.71;nan
62164;BME280;48149;51.132;7.178;2023-01-19T07:55:52;97400.88;;;17.77;nan
62164;BME280;48149;51.132;7.178;2023-01-19T07:58:17;97402.72;;;17.95;nan
62164;BME280;48149;51.132;7.178;2023-01-19T08:00:43;97396.38;;;19.60;nan
62164;BME280;48149;51.132;7.178;2023-01-19T08:03:08;97412.56;;;17.15;nan
62164;BME280;48149;51.132;7.178;2023-01-19T08:05:33;97412.66;;;18.63;nan
62164;BME280;48149;51.132;7.178;2023-01-19T08:07:59;97418.53;;;17.82;nan
62164;BME280;48149;51.132;7.178;2023-01-19T08:10:25;97419.22;;;17.31;nan
62164;BME280;48149;51.132;7.178;2023-01-19T08:12:52;97420.91;;;17.46;nan
62164;BME280;48149;51.132;7.178;2023-01-19T08:15:17;97430.63;;;18.66;nan
62164;BME280;48149;51.132;7.178;2023-01-19T08:17:42;97419.44;;;17.35;nan
62164;BME280;48149;51.132;7.178;2023-01-19T08:20:08;97430.94;;;17.25;nan
62164;BME280;48149;51.132;7.178;2023-01-19T08:22:33;97423.53;;;17.46;nan
62164;BME280;48149;51.132;7.178;2023-01-19T08:24:58;97432.84;;;16.77;nan
62164;BME280;48149;51.132;7.178;2023-01-19T08:27:24;97443.13;;;19.06;nan
62164;BME280;48149;51.132;7.178;2023-01-19T08:29:49;97448.88;;;19.85;nan
62164;BME280;48149;51.132;7.178;2023-01-19T08:32:14;97456.88;;;18.81;nan
62164;BME280;48149;51.132;7.178;2023-01-19T08:34:39;97462.56;;;19.15;nan
62164;BME280;48149;51.132;7.178;2023-01-19T08:37:04;97458.97;;;18.20;nan
62164;BME280;48149;51.132;7.178;2023-01-19T08:39:30;97466.50;;;18.77;nan
62164;BME280;48149;51.132;7.178;2023-01-19T08:41:55;97462.16;;;17.04;nan
62164;BME280;48149;51.132;7.178;2023-01-19T08:44:20;97472.72;;;17.71;nan
62164;BME280;48149;51.132;7.178;2023-01-19T08:46:45;97473.66;;;18.31;nan
62164;BME280;48149;51.132;7.178;2023-01-19T08:49:11;97475.09;;;18.55;nan
62164;BME280;48149;51.132;7.178;2023-01-19T08:51:36;97480.81;;;16.89;nan
62164;BME280;48149;51.132;7.178;2023-01-19T08:54:02;97479.06;;;18.39;nan
62164;BME280;48149;51.132;7.178;2023-01-19T08:56:27;97485.38;;;17.50;nan
62164;BME280;48149;51.132;7.178;2023-01-19T08:58:53;97486.53;;;18.19;nan
62164;BME280;48149;51.132;7.178;2023-01-19T09:01:18;97484.94;;;18.36;nan
62164;BME280;48149;51.132;7.178;2023-01-19T09:03:46;97478.78;;;18.08;nan
62164;BME280;48149;51.132;7.178;2023-01-19T09:06:12;97492.97;;;18.50;nan
62164;BME280;48149;51.132;7.178;2023-01-19T09:08:38;97496.22;;;18.42;nan
62164;BME280;48149;51.132;7.178;2023-01-19T09:11:04;97492.13;;;21.05;nan
62164;BME280;48149;51.132;7.178;2023-01-19T09:13:35;97495.41;;;21.02;nan
62164;BME280;48149;51.132;7.178;2023-01-19T09:16:01;97506.69;;;19.11;nan
62164;BME280;48149;51.132;7.178;2023-01-19T09:18:26;97502.53;;;19.33;nan
62164;BME280;48149;51.132;7.178;2023-01-19T09:20:51;97501.06;;;20.26;nan
62164;BME280;48149;51.132;7.178;2023-01-19T09:23:17;97502.16;;;19.66;nan
62164;BME280;48149;51.132;7.178;2023-01-19T09:25:43;97512.88;;;19.48;nan
62164;BME280;48149;51.132;7.178;2023-01-19T09:28:10;97514.25;;;18.91;nan
62164;BME280;48149;51.132;7.178;2023-01-19T09:30:36;97509.09;;;19.76;nan
62164;BME280;48149;51.132;7.178;2023-01-19T09:33:03;97518.00;;;19.03;nan
62164;BME280;48149;51.132;7.178;2023-01-19T09:35:30;97511.09;;;19.30;nan
62164;BME280;48149;51.132;7.178;2023-01-19T09:37:55;97515.16;;;19.90;nan
62164;BME280;48149;51.132;7.178;2023-01-19T09:40:20;97529.00;;;19.51;nan
62164;BME280;48149;51.132;7.178;2023-01-19T09:42:47;97514.22;;;17.51;nan
62164;BME280;48149;51.132;7.178;2023-01-19T09:45:38;97532.53;;;19.60;nan
62164;BME280;48149;51.132;7.178;2023-01-19T09:48:01;97525.88;;;20.35;nan
62164;BME280;48149;51.132;7.178;2023-01-19T09:50:33;97530.53;;;18.84;nan
62164;BME280;48149;51.132;7.178;2023-01-19T09:53:05;97543.13;;;18.09;nan
62164;BME280;48149;51.132;7.178;2023-01-19T09:55:35;97534.16;;;17.86;nan
62164;BME280;48149;51.132;7.178;2023-01-19T09:58:00;97530.88;;;18.64;nan
62164;BME280;48149;51.132;7.178;2023-01-19T10:00:27;97536.03;;;17.20;nan
62164;BME280;48149;51.132;7.178;2023-01-19T10:02:55;97532.31;;;19.30;nan
62164;BME280;48149;51.132;7.178;2023-01-19T10:05:29;97533.28;;;19.88;nan
62164;BME280;48149;51.132;7.178;2023-01-19T10:08:15;97542.97;;;19.57;nan
62164;BME280;48149;51.132;7.178;2023-01-19T10:10:44;97550.00;;;18.93;nan
62164;BME280;48149;51.132;7.178;2023-01-19T10:13:33;97557.41;;;19.37;nan
62164;BME280;48149;51.132;7.178;2023-01-19T10:18:35;97557.38;;;19.92;nan
62164;BME280;48149;51.132;7.178;2023-01-19T10:26:10;97568.03;;;20.14;nan
62164;BME280;48149;51.132;7.178;2023-01-19T10:28:38;97565.44;;;19.73;nan
62164;BME280;48149;51.132;7.178;2023-01-19T10:31:04;97566.09;;;20.42;nan
62164;BME280;48149;51.132;7.178;2023-01-19T10:33:30;97572.56;;;21.02;nan
62164;BME280;48149;51.132;7.178;2023-01-19T10:35:56;97572.25;;;20.29;nan
62164;BME280;48149;51.132;7.178;2023-01-19T10:38:21;97570.38;;;17.91;nan
62164;BME280;48149;51.132;7.178;2023-01-19T10:40:54;97588.03;;;17.29;nan
62164;BME280;48149;51.132;7.178;2023-01-19T10:46:06;97569.78;;;18.31;nan
62164;BME280;48149;51.132;7.178;2023-01-19T10:48:36;97581.25;;;17.71;nan
62164;BME280;48149;51.132;7.178;2023-01-19T10:51:02;97572.03;;;18.05;nan
62164;BME280;48149;51.132;7.178;2023-01-19T10:53:28;97578.13;;;16.87;nan
62164;BME280;48149;51.132;7.178;2023-01-19T10:56:10;97577.59;;;18.23;nan
62164;BME280;48149;51.132;7.178;2023-01-19T10:58:36;97573.94;;;18.88;nan
62164;BME280;48149;51.132;7.178;2023-01-19T11:01:10;97571.94;;;16.97;nan
62164;BME280;48149;51.132;7.178;2023-01-19T11:03:37;97571.47;;;15.73;nan
62164;BME280;48149;51.132;7.178;2023-01-19T11:06:17;97581.72;;;17.01;nan
62164;BME280;48149;51.132;7.178;2023-01-19T11:08:44;97584.53;;;17.34;nan
62164;BME280;48149;51.132;7.178;2023-01-19T11:11:09;97580.13;;;18.33;nan
62164;BME280;48149;51.132;7.178;2023-01-19T11:13:36;97581.19;;;15.88;nan
62164;BME280;48149;51.132;7.178;2023-01-19T11:18:32;97575.56;;;17.53;nan
62164;BME280;48149;51.132;7.178;2023-01-19T11:21:02;97573.00;;;17.72;nan
62164;BME280;48149;51.132;7.178;2023-01-19T11:23:33;97585.38;;;19.02;nan
62164;BME280;48149;51.132;7.178;2023-01-19T11:26:05;97582.63;;;18.94;nan
62164;BME280;48149;51.132;7.178;2023-01-19T11:28:39;97583.69;;;18.60;nan
62164;BME280;48149;51.132;7.178;2023-01-19T11:33:35;97582.25;;;19.00;nan
62164;BME280;48149;51.132;7.178;2023-01-19T11:36:01;97582.06;;;20.64;nan
62164;BME280;48149;51.132;7.178;2023-01-19T11:38:27;97589.94;;;19.70;nan
62164;BME280;48149;51.132;7.178;2023-01-19T11:40:56;97586.28;;;17.20;nan
62164;BME280;48149;51.132;7.178;2023-01-19T11:43:22;97588.91;;;18.47;nan
62164;BME280;48149;51.132;7.178;2023-01-19T11:45:48;97584.72;;;19.38;nan
62164;BME280;48149;51.132;7.178;2023-01-19T11:48:31;97589.38;;;19.46;nan
62164;BME280;48149;51.132;7.178;2023-01-19T11:50:58;97585.31;;;20.83;nan
62164;BME280;48149;51.132;7.178;2023-01-19T11:53:27;97584.69;;;20.06;nan
62164;BME280;48149;51.132;7.178;2023-01-19T11:55:57;97590.66;;;19.76;nan
62164;BME280;48149;51.132;7.178;2023-01-19T11:58:25;97598.97;;;19.28;nan
62164;BME280;48149;51.132;7.178;2023-01-19T12:06:16;97581.25;;;18.96;nan
62164;BME280;48149;51.132;7.178;2023-01-19T12:08:47;97585.31;;;18.75;nan
62164;BME280;48149;51.132;7.178;2023-01-19T12:11:16;97581.81;;;20.16;nan
62164;BME280;48149;51.132;7.178;2023-01-19T12:13:43;97585.81;;;19.91;nan
62164;BME280;48149;51.132;7.178;2023-01-19T12:16:11;97578.88;;;18.44;nan
62164;BME280;48149;51.132;7.178;2023-01-19T12:18:47;97587.59;;;19.55;nan
62164;BME280;48149;51.132;7.178;2023-01-19T12:21:14;97587.94;;;18.05;nan
62164;BME280;48149;51.132;7.178;2023-01-19T12:28:47;97593.78;;;19.64;nan
62164;BME280;48149;51.132;7.178;2023-01-19T12:31:17;97586.25;;;19.44;nan
62164;BME280;48149;51.132;7.178;2023-01-19T12:33:43;97584.69;;;18.64;nan
62164;BME280;48149;51.132;7.178;2023-01-19T12:36:09;97585.19;;;18.48;nan
62164;BME280;48149;51.132;7.178;2023-01-19T12:41:14;97585.72;;;18.82;nan
62164;BME280;48149;51.132;7.178;2023-01-19T12:43:40;97599.47;;;17.72;nan
62164;BME280;48149;51.132;7.178;2023-01-19T12:48:49;97591.19;;;20.00;nan
62164;BME280;48149;51.132;7.178;2023-01-19T12:51:21;97590.13;;;19.33;nan
62164;BME280;48149;51.132;7.178;2023-01-19T12:53:51;97590.75;;;17.90;nan
62164;BME280;48149;51.132;7.178;2023-01-19T12:56:17;97597.66;;;17.44;nan
62164;BME280;48149;51.132;7.178;2023-01-19T12:58:46;97594.66;;;18.17;nan
62164;BME280;48149;51.132;7.178;2023-01-19T13:01:15;97590.94;;;19.74;nan
62164;BME280;48149;51.132;7.178;2023-01-19T13:09:27;97602.97;;;19.44;nan
62164;BME280;48149;51.132;7.178;2023-01-19T13:14:37;97601.47;;;18.92;nan
62164;BME280;48149;51.132;7.178;2023-01-19T13:17:03;97595.34;;;20.86;nan
62164;BME280;48149;51.132;7.178;2023-01-19T13:19:36;97599.94;;;19.18;nan
62164;BME280;48149;51.132;7.178;2023-01-19T13:25:03;97600.47;;;20.38;nan
62164;BME280;48149;51.132;7.178;2023-01-19T13:27:29;97597.91;;;21.22;nan
62164;BME280;48149;51.132;7.178;2023-01-19T13:29:54;97608.25;;;19.85;nan
62164;BME280;48149;51.132;7.178;2023-01-19T13:32:19;97605.66;;;19.26;nan
62164;BME280;48149;51.132;7.178;2023-01-19T13:34:52;97604.47;;;20.13;nan
62164;BME280;48149;51.132;7.178;2023-01-19T13:37:21;97606.59;;;19.02;nan
62164;BME280;48149;51.132;7.178;2023-01-19T13:39:48;97605.13;;;19.10;nan
62164;BME280;48149;51.132;7.178;2023-01-19T13:42:27;97608.97;;;18.34;nan
62164;BME280;48149;51.132;7.178;2023-01-19T13:44:53;97607.19;;;20.80;nan
62164;BME280;48149;51.132;7.178;2023-01-19T13:47:22;97621.81;;;19.97;nan
62164;BME280;48149;51.132;7.178;2023-01-19T13:49:50;97611.28;;;18.92;nan
62164;BME280;48149;51.132;7.178;2023-01-19T13:52:26;97615.16;;;20.22;nan
62164;BME280;48149;51.132;7.178;2023-01-19T13:54:52;97618.09;;;21.14;nan
62164;BME280;48149;51.132;7.178;2023-01-19T13:57:22;97617.41;;;19.06;nan
62164;BME280;48149;51.132;7.178;2023-01-19T14:00:02;97614.75;;;21.09;nan
62164;BME280;48149;51.132;7.178;2023-01-19T14:02:28;97613.25;;;20.36;nan
62164;BME280;48149;51.132;7.178;2023-01-19T14:04:53;97618.56;;;21.16;nan
62164;BME280;48149;51.132;7.178;2023-01-19T14:07:21;97612.88;;;21.09;nan
62164;BME280;48149;51.132;7.178;2023-01-19T14:10:05;97629.09;;;19.92;nan
62164;BME280;48149;51.132;7.178;2023-01-19T14:12:33;97624.72;;;21.03;nan